Time;durP1;ratioP1;P1;durP2;ratioP2;P2;SDS_P1;SDS_P2;PMS_P1;PMS_P2;Temp;Humidity;BMP_temperature;BMP_pressure;BME280_temperature;BME280_humidity;BME280_pressure;Samples;Min_cycle;Max_cycle;Signal;HPM_P1;HPM_P2
2021/11/09 00:00:40;;;;;;;;;84.67;68.00;;;;;9.50;69.43;102265.59;5036432;28;45622;-68
2021/11/09 00:03:07;;;;;;;;;89.67;66.33;;;;;9.47;69.70;102265.66;5040476;28;45469;-69
2021/11/09 00:05:45;;;;;;;;;89.67;68.33;;;;;9.46;69.30;102263.09;5035597;28;45505;-69
2021/11/09 00:08:15;;;;;;;;;93.00;77.33;;;;;9.49;69.69;102260.38;5038117;28;48415;-70
2021/11/09 00:10:43;;;;;;;;;93.67;73.33;;;;;9.46;69.56;102263.94;5042119;28;45513;-70
2021/11/09 00:13:09;;;;;;;;;83.33;64.00;;;;;9.47;69.97;102260.41;5038594;28;45402;-70
2021/11/09 00:15:35;;;;;;;;;88.67;63.33;;;;;9.46;69.62;102252.56;5040412;28;45422;-70
2021/11/09 00:18:02;;;;;;;;;92.33;68.00;;;;;9.46;69.51;102247.31;5040550;28;45235;-70
2021/11/09 00:20:30;;;;;;;;;87.33;64.67;;;;;9.49;69.63;102248.09;5041829;28;45320;-70
2021/11/09 00:22:58;;;;;;;;;89.33;66.00;;;;;9.49;69.25;102244.59;5040542;28;45276;-70
2021/11/09 00:25:25;;;;;;;;;85.00;64.33;;;;;9.48;69.02;102238.47;5040915;28;45163;-70
2021/11/09 00:27:52;;;;;;;;;88.00;65.33;;;;;9.44;69.44;102244.72;5038927;28;46256;-70
2021/11/09 00:30:20;;;;;;;;;80.67;62.00;;;;;9.41;69.28;102246.59;5041614;28;45538;-70
2021/11/09 00:32:46;;;;;;;;;87.33;63.33;;;;;9.39;69.27;102253.66;5041270;28;45445;-70
2021/11/09 00:35:15;;;;;;;;;83.00;60.67;;;;;9.38;69.04;102247.53;5039065;28;45562;-69
2021/11/09 00:37:42;;;;;;;;;84.00;63.67;;;;;9.35;69.21;102249.41;5038325;28;46314;-69
2021/11/09 00:40:10;;;;;;;;;85.67;63.33;;;;;9.29;69.24;102241.69;5038690;28;45475;-69
2021/11/09 00:42:37;;;;;;;;;60.33;47.67;;;;;9.25;69.40;102243.56;5040901;28;45450;-69
2021/11/09 00:45:05;;;;;;;;;79.33;60.33;;;;;9.20;69.38;102242.84;5035806;28;45400;-69
2021/11/09 00:47:31;;;;;;;;;73.00;56.67;;;;;9.19;68.90;102244.59;5039660;28;45243;-69
2021/11/09 00:49:57;;;;;;;;;77.67;56.67;;;;;9.16;69.25;102242.06;5039468;28;45669;-69
2021/11/09 00:52:22;;;;;;;;;68.00;54.00;;;;;9.15;69.36;102236.84;5037182;28;45475;-76
2021/11/09 00:54:48;;;;;;;;;76.67;59.00;;;;;9.13;69.28;102246.53;5036611;28;45587;-76
2021/11/09 00:57:13;;;;;;;;;74.33;59.33;;;;;9.12;69.26;102245.69;5038885;28;45958;-76
2021/11/09 00:59:39;;;;;;;;;68.33;55.00;;;;;9.13;69.13;102236.88;5036811;28;45780;-75
2021/11/09 01:02:07;;;;;;;;;77.00;56.67;;;;;9.16;69.47;102246.44;5037285;28;45534;-76
2021/11/09 01:04:33;;;;;;;;;77.00;60.00;;;;;9.16;69.03;102251.69;5033558;28;45600;-76
2021/11/09 01:06:59;;;;;;;;;72.00;55.67;;;;;9.10;69.42;102257.16;5039035;28;45405;-76
2021/11/09 01:09:25;;;;;;;;;72.33;56.33;;;;;9.10;69.01;102250.13;5040971;28;45226;-77
2021/11/09 01:11:52;;;;;;;;;77.00;56.33;;;;;9.11;69.12;102254.47;5039725;28;45228;-76
2021/11/09 01:14:19;;;;;;;;;72.33;56.00;;;;;9.08;69.32;102254.56;5039674;28;45447;-76
2021/11/09 01:16:45;;;;;;;;;72.33;54.33;;;;;9.07;69.03;102254.59;5040785;28;45527;-77
2021/11/09 01:19:10;;;;;;;;;72.67;53.67;;;;;9.11;69.39;102251.00;5040693;28;45316;-76
2021/11/09 01:21:37;;;;;;;;;74.67;55.67;;;;;9.10;68.85;102255.41;5039232;28;45332;-77
2021/11/09 01:24:03;;;;;;;;;66.25;52.00;;;;;9.07;69.50;102257.22;5038509;28;45470;-75
2021/11/09 01:26:30;;;;;;;;;74.33;56.00;;;;;9.04;69.47;102258.19;5040125;28;45857;-76
2021/11/09 01:29:05;;;;;;;;;67.25;54.00;;;;;9.01;69.22;102254.81;5040744;28;45232;-75
2021/11/09 01:31:33;;;;;;;;;70.25;54.75;;;;;8.96;68.89;102260.19;5040842;28;45489;-75
2021/11/09 01:33:58;;;;;;;;;67.25;53.50;;;;;8.91;68.88;102254.19;5037175;28;45363;-76
2021/11/09 01:36:24;;;;;;;;;66.00;53.00;;;;;8.88;69.19;102262.16;5034603;28;46421;-76
2021/11/09 01:38:50;;;;;;;;;73.33;55.67;;;;;8.85;69.27;102263.13;5038264;28;45272;-76
2021/11/09 01:41:16;;;;;;;;;66.00;50.33;;;;;8.84;69.72;102278.91;5036226;28;45295;-75
2021/11/09 01:43:43;;;;;;;;;72.33;56.00;;;;;8.85;69.47;102273.63;5035378;28;46410;-75
2021/11/09 01:46:10;;;;;;;;;71.00;53.67;;;;;8.85;69.67;102275.38;5037185;28;46172;-74
2021/11/09 01:48:37;;;;;;;;;74.00;55.00;;;;;8.84;69.88;102271.00;5040643;28;45456;-75
2021/11/09 01:51:06;;;;;;;;;74.33;54.67;;;;;8.86;69.80;102263.97;5035385;28;45373;-75
2021/11/09 01:53:33;;;;;;;;;69.67;51.33;;;;;8.89;69.59;102267.38;5035896;28;45474;-75
2021/11/09 01:56:02;;;;;;;;;68.33;50.67;;;;;8.93;69.93;102270.78;5033683;28;46039;-75
2021/11/09 01:58:31;;;;;;;;;75.67;56.00;;;;;8.92;69.88;102264.63;5036377;28;45400;-75
2021/11/09 02:01:00;;;;;;;;;76.00;55.00;;;;;8.91;69.43;102267.31;5036534;28;45329;-67
2021/11/09 02:03:26;;;;;;;;;73.33;55.00;;;;;8.89;69.90;102261.25;5036354;28;45212;-74
2021/11/09 02:05:53;;;;;;;;;68.67;54.33;;;;;8.87;70.16;102258.66;5034933;28;46460;-76
2021/11/09 02:08:20;;;;;;;;;68.00;54.33;;;;;8.83;70.09;102264.03;5036830;28;45436;-76
2021/11/09 02:10:47;;;;;;;;;75.33;56.33;;;;;8.78;70.15;102269.44;5037202;28;45542;-76
2021/11/09 02:13:13;;;;;;;;;66.00;52.67;;;;;8.75;70.17;102260.75;5035293;28;45669;-76
2021/11/09 02:15:40;;;;;;;;;71.00;55.00;;;;;8.76;69.92;102265.97;5037897;28;45237;-76
2021/11/09 02:18:08;;;;;;;;;75.33;54.33;;;;;8.77;69.71;102266.81;5035726;28;45206;-76
2021/11/09 02:20:34;;;;;;;;;65.00;51.67;;;;;8.74;69.80;102265.16;5038991;28;45676;-76
2021/11/09 02:23:00;;;;;;;;;71.00;50.33;;;;;8.70;69.81;102267.94;5039233;28;45336;-76
2021/11/09 02:25:29;;;;;;;;;59.67;47.33;;;;;8.64;69.80;102271.56;5037416;28;46436;-76
2021/11/09 02:27:56;;;;;;;;;67.00;49.50;;;;;8.63;69.95;102275.09;5037795;28;45284;-76
2021/11/09 02:30:24;;;;;;;;;64.75;49.50;;;;;8.66;69.94;102264.50;5039149;28;45494;-76
2021/11/09 02:32:52;;;;;;;;;53.50;42.50;;;;;8.70;69.50;102273.19;5035177;28;45462;-76
2021/11/09 02:35:20;;;;;;;;;53.50;40.00;;;;;8.72;69.52;102277.47;5032768;28;46286;-76
2021/11/09 02:37:46;;;;;;;;;56.75;43.25;;;;;8.74;69.71;102283.53;5035022;28;45240;-76
2021/11/09 02:40:12;;;;;;;;;57.25;42.75;;;;;8.77;69.61;102283.47;5037448;28;45147;-76
2021/11/09 02:42:46;;;;;;;;;55.75;43.25;;;;;8.81;69.69;102281.63;5038652;28;45491;-76
2021/11/09 02:45:21;;;;;;;;;61.25;47.00;;;;;8.78;69.55;102277.31;5031545;28;45566;-76
2021/11/09 02:47:59;;;;;;;;;61.75;44.00;;;;;8.78;69.15;102279.94;5033975;28;45249;-76
2021/11/09 02:50:30;;;;;;;;;54.00;41.50;;;;;8.79;69.14;102280.81;5031913;28;45550;-76
2021/11/09 02:53:00;;;;;;;;;64.75;47.00;;;;;8.76;68.94;102288.75;5032030;28;45230;-76
2021/11/09 02:55:32;;;;;;;;;59.75;46.75;;;;;8.67;69.15;102282.84;5034823;28;45258;-76
2021/11/09 03:00:38;;;;;;;;;48.25;40.50;;;;;8.55;69.14;102277.06;5037351;28;45380;-76
2021/11/09 03:03:16;;;;;;;;;53.75;41.25;;;;;8.49;69.26;102282.47;5021384;28;45203;-76
2021/11/09 03:08:53;;;;;;;;;59.00;42.00;;;;;8.44;69.61;102276.47;5034614;28;45290;-76
2021/11/09 03:11:06;;;;;;;;;52.00;42.25;;;;;8.41;69.67;102279.19;5028655;28;45451;-76
2021/11/09 03:13:33;;;;;;;;;53.50;40.00;;;;;8.42;69.80;102275.66;5021679;28;45772;-76
2021/11/09 03:16:06;;;;;;;;;55.50;42.75;;;;;8.43;69.71;102278.22;5034386;28;45443;-77
2021/11/09 03:18:38;;;;;;;;;45.75;37.50;;;;;8.45;69.76;102270.31;5037129;28;45506;-77
2021/11/09 03:40:14;;;;;;;;;52.00;43.00;;;;;8.34;69.60;102276.66;5035078;28;45228;-76
2021/11/09 03:45:29;;;;;;;;;55.25;39.50;;;;;8.36;69.58;102274.03;5035510;28;45210;-76
2021/11/09 03:48:02;;;;;;;;;56.25;43.00;;;;;8.34;69.40;102267.94;5033899;28;46430;-76
2021/11/09 03:50:29;;;;;;;;;52.25;41.00;;;;;8.29;69.27;102270.66;5034257;28;45322;-77
2021/11/09 03:53:08;;;;;;;;;52.25;40.75;;;;;8.24;69.48;102269.06;5036003;28;45475;-76
2021/11/09 03:58:23;;;;;;;;;50.00;40.50;;;;;8.13;69.31;102264.06;5033557;28;45382;-77
2021/11/09 04:05:57;;;;;;;;;60.00;40.75;;;;;8.09;69.68;102275.56;5038277;28;45447;-76
2021/11/09 04:08:39;;;;;;;;;48.00;40.00;;;;;8.11;69.80;102264.13;5038102;28;46407;-76
2021/11/09 04:11:14;;;;;;;;;55.50;41.25;;;;;8.17;69.66;102268.38;5039185;28;45483;-75
2021/11/09 04:19:09;;;;;;;;;54.50;42.00;;;;;8.21;69.57;102269.13;5037755;28;45282;-73
2021/11/09 04:29:56;;;;;;;;;56.25;42.00;;;;;8.28;69.26;102284.69;5040309;28;45551;-73
2021/11/09 04:33:03;;;;;;;;;47.25;39.75;;;;;8.29;69.23;102278.53;5036136;28;45333;-73
2021/11/09 05:02:26;;;;;;;;;54.25;44.50;;;;;8.06;69.86;102294.88;5038132;28;45686;-74
2021/11/09 05:10:23;;;;;;;;;61.25;46.00;;;;;7.90;69.60;102306.63;5039042;28;45325;-75
2021/11/09 05:12:49;;;;;;;;;53.75;42.00;;;;;7.92;69.52;102309.22;5032955;28;46562;-74
2021/11/09 05:15:14;;;;;;;;;68.25;50.50;;;;;7.95;69.70;102304.75;5036748;28;45476;-74
2021/11/09 05:17:40;;;;;;;;;52.75;40.75;;;;;7.93;69.68;102313.56;5035481;28;45422;-74
2021/11/09 05:20:06;;;;;;;;;60.75;46.50;;;;;7.91;69.47;102308.34;5038918;28;45611;-73
2021/11/09 05:22:31;;;;;;;;;65.50;49.75;;;;;7.93;69.62;102316.19;5035739;28;45388;-73
2021/11/09 05:24:57;;;;;;;;;64.75;46.50;;;;;7.96;69.38;102318.72;5034443;28;45784;-75
2021/11/09 05:27:26;;;;;;;;;54.75;45.25;;;;;8.00;69.39;102312.53;5035953;28;45464;-74
2021/11/09 05:29:53;;;;;;;;;57.50;45.75;;;;;8.04;69.21;102309.78;5036469;28;45368;-74
2021/11/09 05:32:18;;;;;;;;;52.00;42.00;;;;;8.06;69.09;102308.00;5035848;28;45276;-74
2021/11/09 05:34:44;;;;;;;;;60.00;45.75;;;;;8.08;69.09;102319.31;5037121;28;45316;-74
2021/11/09 05:37:12;;;;;;;;;57.25;44.25;;;;;8.10;68.97;102321.91;5031072;28;45461;-74
2021/11/09 05:39:50;;;;;;;;;64.00;47.00;;;;;8.11;68.89;102332.34;5038595;28;45364;-75
2021/11/09 05:42:16;;;;;;;;;50.75;43.00;;;;;8.13;68.74;102322.69;5034047;28;46249;-75
2021/11/09 05:44:42;;;;;;;;;64.25;48.50;;;;;8.12;68.84;102325.34;5035515;28;45426;-75
2021/11/09 05:47:08;;;;;;;;;56.25;42.25;;;;;8.07;68.67;102332.47;5035333;28;45429;-75
2021/11/09 05:49:34;;;;;;;;;60.75;48.25;;;;;8.00;68.84;102329.13;5038335;28;45499;-75
2021/11/09 05:52:01;;;;;;;;;53.25;41.50;;;;;7.94;68.86;102331.91;5035694;28;45533;-74
2021/11/09 05:54:27;;;;;;;;;57.25;43.75;;;;;7.88;68.97;102326.78;5038222;28;45208;-74
2021/11/09 05:56:53;;;;;;;;;67.00;50.75;;;;;7.86;69.17;102340.84;5035244;28;45399;-75
2021/11/09 05:59:19;;;;;;;;;60.00;48.75;;;;;7.82;69.20;102340.06;5037381;28;45328;-75
2021/11/09 06:01:44;;;;;;;;;59.75;44.00;;;;;7.80;69.41;102345.31;5036203;28;45326;-74
2021/11/09 06:04:10;;;;;;;;;69.50;51.25;;;;;7.89;69.83;102348.63;5035565;28;45388;-71
2021/11/09 06:06:35;;;;;;;;;65.50;47.50;;;;;7.92;69.44;102349.44;5040763;28;45354;-71
2021/11/09 06:09:01;;;;;;;;;65.25;49.25;;;;;7.94;69.07;102344.16;5038243;28;45335;-71
2021/11/09 06:11:27;;;;;;;;;62.75;48.50;;;;;7.95;69.39;102359.84;5034931;28;46266;-70
2021/11/09 06:13:52;;;;;;;;;60.25;46.25;;;;;7.97;69.31;102355.44;5037873;28;45260;-71
2021/11/09 06:16:18;;;;;;;;;69.25;49.00;;;;;8.01;68.92;102357.09;5035199;28;45252;-70
2021/11/09 06:18:44;;;;;;;;;55.25;41.00;;;;;8.04;69.48;102359.63;5037958;28;45605;-70
2021/11/09 06:21:09;;;;;;;;;56.25;46.50;;;;;8.06;69.13;102364.88;5034788;28;45227;-70
2021/11/09 06:23:35;;;;;;;;;60.75;49.00;;;;;8.04;68.98;102364.88;5037588;28;45306;-71
2021/11/09 06:26:01;;;;;;;;;55.00;40.00;;;;;8.02;68.95;102364.06;5035062;28;45228;-70
2021/11/09 06:28:27;;;;;;;;;63.75;48.75;;;;;7.97;68.96;102363.28;5037262;28;45450;-71
2021/11/09 06:30:53;;;;;;;;;58.00;41.50;;;;;7.88;69.05;102365.28;5037889;28;46179;-70
2021/11/09 06:33:20;;;;;;;;;71.33;53.33;;;;;7.84;69.04;102374.97;5041037;28;45383;-70
2021/11/09 06:35:46;;;;;;;;;63.25;50.00;;;;;7.80;69.06;102370.69;5033377;28;45325;-70
2021/11/09 06:38:12;;;;;;;;;68.50;50.50;;;;;7.81;69.32;102377.66;5039894;28;45417;-70
2021/11/09 06:40:38;;;;;;;;;63.00;49.00;;;;;7.84;69.76;102380.22;5042007;28;45310;-70
2021/11/09 06:43:04;;;;;;;;;69.50;51.00;;;;;7.87;69.37;102376.66;5041474;28;45327;-70
2021/11/09 06:45:29;;;;;;;;;59.00;49.00;;;;;7.84;69.09;102385.47;5040757;28;45225;-70
2021/11/09 06:47:55;;;;;;;;;62.50;48.75;;;;;7.76;69.30;102385.63;5023389;28;45600;-70
2021/11/09 06:50:22;;;;;;;;;58.00;44.75;;;;;7.75;69.20;102386.53;5040867;28;46280;-70
2021/11/09 06:52:47;;;;;;;;;65.00;49.75;;;;;7.78;69.76;102385.59;5038887;28;45493;-70
2021/11/09 06:55:13;;;;;;;;;41.50;32.50;;;;;7.78;69.50;102382.97;5040825;28;46549;-70
2021/11/09 06:57:39;;;;;;;;;59.25;46.75;;;;;7.79;69.36;102384.69;5040788;28;45388;-69
2021/11/09 07:00:08;;;;;;;;;60.00;44.75;;;;;7.80;69.49;102395.16;5040535;28;45932;-70
2021/11/09 07:02:35;;;;;;;;;67.50;47.50;;;;;7.82;69.42;102389.91;5040503;28;45326;-70
2021/11/09 07:05:01;;;;;;;;;61.25;45.75;;;;;7.84;69.53;102382.84;5031417;28;45175;-69
2021/11/09 07:07:26;;;;;;;;;58.75;45.75;;;;;7.83;69.68;102382.00;5040359;28;45317;-69
2021/11/09 07:09:52;;;;;;;;;61.25;44.25;;;;;7.84;69.46;102388.09;5040358;28;45237;-69
2021/11/09 07:12:17;;;;;;;;;59.00;48.00;;;;;7.81;69.26;102385.53;5040355;28;45320;-69
2021/11/09 07:14:43;;;;;;;;;70.25;49.50;;;;;7.81;69.57;102382.91;5040200;28;45383;-70
2021/11/09 07:17:09;;;;;;;;;62.50;45.50;;;;;7.86;69.84;102385.44;5040315;28;45595;-70
2021/11/09 07:19:36;;;;;;;;;63.25;47.50;;;;;7.86;69.87;102388.06;5040239;28;45403;-69
2021/11/09 07:22:03;;;;;;;;;62.50;46.50;;;;;7.90;70.12;102389.69;5040042;28;45384;-64
2021/11/09 07:24:31;;;;;;;;;67.00;48.50;;;;;7.94;69.87;102396.63;5040363;28;45292;-66
2021/11/09 07:26:56;;;;;;;;;63.25;48.25;;;;;7.97;69.93;102386.06;5040068;28;45237;-63
2021/11/09 07:32:46;;;;;;;;;61.25;45.50;;;;;8.10;70.01;102391.00;5035978;28;45436;-62
2021/11/09 07:35:13;;;;;;;;;69.50;52.00;;;;;8.13;70.14;102390.91;5030938;28;45408;-63
2021/11/09 07:37:38;;;;;;;;;66.25;50.00;;;;;8.19;70.13;102397.81;5037463;28;45503;-62
2021/11/09 07:40:06;;;;;;;;;65.00;48.75;;;;;8.25;69.85;102402.06;5040207;28;45412;-62
2021/11/09 07:42:31;;;;;;;;;73.00;53.75;;;;;8.32;69.83;102411.53;5025323;28;45296;-62
2021/11/09 07:44:57;;;;;;;;;68.25;49.25;;;;;8.37;69.79;102407.03;5043457;28;45255;-62
2021/11/09 07:47:24;;;;;;;;;60.00;47.00;;;;;8.40;69.80;102417.50;5043216;28;45334;-65
2021/11/09 07:49:50;;;;;;;;;70.75;50.00;;;;;8.44;69.62;102413.88;5043143;28;45335;-64
2021/11/09 07:52:16;;;;;;;;;58.25;46.75;;;;;8.49;69.78;102413.78;5042705;28;45552;-64
2021/11/09 07:54:46;;;;;;;;;64.25;47.00;;;;;8.51;69.44;102425.09;5043200;28;45400;-67
2021/11/09 07:57:15;;;;;;;;;61.25;46.00;;;;;8.55;69.65;102427.63;5042884;28;45338;-64
2021/11/09 07:59:55;;;;;;;;;66.75;48.00;;;;;8.59;69.46;102431.91;5043281;28;46119;-65
2021/11/09 08:02:29;;;;;;;;;69.00;50.75;;;;;8.63;69.55;102437.97;5043316;28;45715;-63
2021/11/09 08:05:04;;;;;;;;;57.75;45.25;;;;;8.67;69.88;102437.84;5033650;28;45332;-64
2021/11/09 08:07:33;;;;;;;;;62.00;46.75;;;;;8.72;69.71;102432.47;5043059;28;45433;-62
2021/11/09 08:10:00;;;;;;;;;55.75;46.75;;;;;8.76;69.73;102433.25;5042897;28;45495;-61
2021/11/09 08:12:25;;;;;;;;;61.50;46.75;;;;;8.80;69.95;102434.94;5043195;28;45304;-64
2021/11/09 08:14:51;;;;;;;;;62.00;48.75;;;;;8.86;69.75;102434.78;5043064;28;45236;-62
2021/11/09 08:17:17;;;;;;;;;61.50;47.25;;;;;8.90;70.00;102433.78;5041748;28;45246;-62
2021/11/09 08:19:43;;;;;;;;;64.25;47.00;;;;;8.93;70.03;102429.34;5042955;28;46008;-64
2021/11/09 08:22:09;;;;;;;;;61.50;47.75;;;;;9.01;69.61;102436.16;5042634;28;45389;-65
2021/11/09 08:24:35;;;;;;;;;67.75;52.25;;;;;9.04;68.94;102436.06;5040582;28;45332;-62
2021/11/09 08:27:05;;;;;;;;;75.50;52.00;;;;;9.05;69.05;102438.66;5041007;28;45546;-64
2021/11/09 08:29:31;;;;;;;;;66.50;54.25;;;;;9.08;68.74;102445.59;5042600;28;46072;-63
2021/11/09 08:31:59;;;;;;;;;68.50;53.25;;;;;9.07;68.84;102436.84;5042837;28;45268;-63
2021/11/09 08:34:27;;;;;;;;;68.25;49.50;;;;;9.11;68.53;102437.63;5042773;28;45422;-64
2021/11/09 08:36:55;;;;;;;;;36.75;25.00;;;;;9.14;68.91;102435.78;5032104;28;45665;-65
2021/11/09 08:39:31;;;;;;;;;68.25;53.00;;;;;9.21;69.08;102437.34;5038242;28;45476;-64
2021/11/09 08:42:09;;;;;;;;;64.75;48.50;;;;;9.29;69.15;102436.28;5037445;28;45443;-63
2021/11/09 08:44:42;;;;;;;;;56.75;43.75;;;;;9.35;68.70;102446.66;5041914;28;45321;-64
2021/11/09 08:47:08;;;;;;;;;57.75;42.50;;;;;9.39;68.60;102441.25;5036223;28;46243;-66
2021/11/09 08:49:34;;;;;;;;;47.75;33.75;;;;;9.46;68.64;102432.28;5036575;28;45452;-64
2021/11/09 08:52:04;;;;;;;;;48.75;39.50;;;;;9.54;68.93;102436.47;5037089;28;45344;-64
2021/11/09 08:54:36;;;;;;;;;36.25;32.00;;;;;9.60;68.42;102441.56;5035129;28;45308;-65
2021/11/09 08:57:22;;;;;;;;;35.25;26.50;;;;;9.61;68.32;102438.03;5033225;28;45333;-65
2021/11/09 09:05:15;;;;;;;;;33.00;25.00;;;;;9.68;67.65;102435.19;5035238;28;45344;-66
2021/11/09 09:07:41;;;;;;;;;32.75;24.00;;;;;9.70;67.95;102438.63;5033763;28;45347;-62
2021/11/09 09:10:11;;;;;;;;;40.25;27.50;;;;;9.74;67.52;102429.75;5035287;28;45446;-65
2021/11/09 09:12:40;;;;;;;;;30.50;24.50;;;;;9.82;67.56;102436.56;5032548;28;45458;-64
2021/11/09 09:15:07;;;;;;;;;30.25;25.00;;;;;9.90;67.76;102437.22;5035050;28;45274;-64
2021/11/09 09:17:35;;;;;;;;;33.25;28.50;;;;;9.97;67.34;102439.63;5012737;28;45351;-62
2021/11/09 09:20:10;;;;;;;;;30.25;21.00;;;;;10.04;67.10;102440.31;5032923;28;45345;-60
2021/11/09 09:22:41;;;;;;;;;29.75;20.75;;;;;10.10;67.16;102436.59;5034214;28;45458;-64
2021/11/09 09:31:10;;;;;;;;;26.50;21.00;;;;;10.25;65.79;102437.03;5035260;28;45368;-63
2021/11/09 09:56:10;;;;;;;;;27.25;22.25;;;;;10.58;64.54;102431.63;4998299;28;45541;-63
2021/11/09 09:58:12;;;;;;;;;25.50;19.25;;;;;10.67;64.80;102425.22;5026264;28;45467;-65
2021/11/09 10:00:40;;;;;;;;;32.75;23.50;;;;;10.72;64.53;102433.81;5035612;28;45356;-64
2021/11/09 10:03:06;;;;;;;;;31.25;21.75;;;;;10.78;64.39;102430.97;5034471;28;45325;-63
2021/11/09 10:05:38;;;;;;;;;25.00;20.00;;;;;10.84;63.91;102425.50;5037712;28;45344;-65
2021/11/09 10:08:20;;;;;;;;;27.00;20.50;;;;;10.88;64.26;102424.47;5035062;28;45353;-65
2021/11/09 10:10:47;;;;;;;;;33.25;22.50;;;;;10.92;63.90;102420.84;5036724;28;45495;-63
2021/11/09 10:13:17;;;;;;;;;35.25;25.00;;;;;10.97;64.13;102418.88;5035260;28;46554;-62
2021/11/09 10:15:51;;;;;;;;;26.00;15.50;;;;;11.06;63.90;102417.72;5014446;28;45372;-63
2021/11/09 10:18:19;;;;;;;;;28.75;19.00;;;;;11.12;63.33;102420.16;5035168;28;45324;-62
2021/11/09 10:20:49;;;;;;;;;35.25;28.75;;;;;11.17;63.61;102418.22;5038367;28;45386;-63
2021/11/09 10:23:19;;;;;;;;;38.75;33.50;;;;;11.22;63.85;102421.56;5040847;28;46354;-63
2021/11/09 10:25:45;;;;;;;;;45.50;33.50;;;;;11.28;63.71;102418.69;5041265;28;45454;-64
2021/11/09 10:28:21;;;;;;;;;58.25;44.00;;;;;11.31;63.63;102413.31;5040676;28;45686;-65
2021/11/09 10:31:03;;;;;;;;;54.25;41.75;;;;;11.32;63.97;102412.41;5041210;28;45463;-64
2021/11/09 10:33:35;;;;;;;;;52.50;38.75;;;;;11.35;63.55;102411.44;5040926;28;46271;-63
2021/11/09 10:36:02;;;;;;;;;53.00;41.25;;;;;11.33;63.69;102397.44;5032637;28;45345;-67
2021/11/09 10:38:32;;;;;;;;;42.25;38.50;;;;;11.46;63.55;102401.38;5040812;28;45394;-67
2021/11/09 10:40:59;;;;;;;;;52.25;40.75;;;;;11.52;63.71;102408.19;5040843;28;45321;-65
2021/11/09 10:43:26;;;;;;;;;51.25;39.00;;;;;11.58;63.81;102405.31;5040744;28;45342;-63
2021/11/09 10:45:52;;;;;;;;;50.00;41.50;;;;;11.61;63.59;102405.19;5040655;28;45403;-62
2021/11/09 10:48:20;;;;;;;;;50.75;39.00;;;;;11.65;63.80;102404.19;5039745;28;45413;-63
2021/11/09 10:50:50;;;;;;;;;58.25;44.75;;;;;11.70;63.31;102397.81;5038425;28;45505;-64
2021/11/09 11:03:56;;;;;;;;;42.75;32.25;;;;;11.85;61.94;102390.25;5040052;28;45368;-65
2021/11/09 11:06:24;;;;;;;;;47.50;33.50;;;;;11.88;61.92;102391.00;5040294;28;45316;-65
2021/11/09 11:09:13;;;;;;;;;41.75;33.75;;;;;11.94;61.45;102384.63;5040899;28;45314;-65
2021/11/09 11:11:40;;;;;;;;;34.75;22.75;;;;;11.98;61.23;102381.78;5040532;28;45438;-64
2021/11/09 11:14:10;;;;;;;;;27.00;23.75;;;;;12.00;61.50;102372.03;5040403;28;45385;-64
2021/11/09 11:16:47;;;;;;;;;26.75;22.50;;;;;12.05;61.33;102373.66;5043021;28;45440;-64
2021/11/09 11:19:22;;;;;;;;;35.25;24.00;;;;;12.08;61.17;102376.16;5026293;28;45270;-63
2021/11/09 11:21:48;;;;;;;;;32.25;26.50;;;;;12.11;61.33;102374.28;5044282;28;45163;-63
2021/11/09 11:24:14;;;;;;;;;21.25;17.75;;;;;12.14;60.85;102374.13;5044172;28;45455;-63
2021/11/09 11:26:43;;;;;;;;;34.75;21.50;;;;;12.13;60.62;102374.19;5043791;28;45423;-64
2021/11/09 11:29:08;;;;;;;;;33.75;24.50;;;;;12.14;61.02;102373.28;5043684;28;45320;-63
2021/11/09 11:31:34;;;;;;;;;39.00;25.50;;;;;12.17;60.89;102362.59;5044093;28;45253;-64
2021/11/09 11:34:01;;;;;;;;;35.00;29.75;;;;;12.17;60.52;102368.75;5043841;28;45567;-63
2021/11/09 11:36:26;;;;;;;;;32.75;23.50;;;;;12.17;60.23;102358.19;5035728;28;45373;-63
2021/11/09 11:38:58;;;;;;;;;22.25;15.75;;;;;12.21;60.55;102361.53;5043890;28;45216;-63
2021/11/09 11:41:33;;;;;;;;;29.00;21.75;;;;;12.26;60.24;102346.38;5043954;28;45427;-64
2021/11/09 11:44:00;;;;;;;;;25.00;22.00;;;;;12.28;60.17;102350.66;5043381;28;46314;-63
2021/11/09 11:46:31;;;;;;;;;26.50;24.00;;;;;12.30;59.56;102346.16;5043858;28;45416;-64
2021/11/09 11:48:59;;;;;;;;;28.25;19.00;;;;;12.32;59.60;102343.47;5025683;28;45332;-63
2021/11/09 11:51:27;;;;;;;;;22.25;18.75;;;;;12.39;59.51;102344.06;5043664;28;45183;-64
2021/11/09 11:53:55;;;;;;;;;27.25;21.75;;;;;12.45;59.15;102333.25;5043473;28;45422;-64
2021/11/09 11:56:47;;;;;;;;;21.75;16.75;;;;;12.48;58.75;102333.13;5043455;28;45347;-64
2021/11/09 11:59:18;;;;;;;;;16.50;14.50;;;;;12.51;58.63;102328.59;5043628;28;45178;-64
2021/11/09 12:01:45;;;;;;;;;23.00;17.00;;;;;12.54;58.26;102333.72;5043646;28;45447;-64
2021/11/09 12:04:51;;;;;;;;;18.50;11.75;;;;;12.60;58.14;102324.69;5038384;28;46390;-64
2021/11/09 12:07:19;;;;;;;;;21.75;18.75;;;;;12.64;57.78;102318.38;5031783;28;45258;-64
2021/11/09 12:09:48;;;;;;;;;26.50;17.75;;;;;12.67;58.54;102312.06;5025368;28;45478;-63
2021/11/09 12:12:22;;;;;;;;;20.25;16.25;;;;;12.69;57.98;102312.84;5043481;28;45299;-64
2021/11/09 12:15:01;;;;;;;;;21.25;18.50;;;;;12.72;58.32;102308.31;5042982;28;45478;-63
2021/11/09 12:17:39;;;;;;;;;18.75;17.25;;;;;12.77;57.88;102302.81;5043250;28;45229;-64
2021/11/09 12:20:09;;;;;;;;;23.00;17.00;;;;;12.81;57.53;102304.41;5043445;28;45268;-63
2021/11/09 12:22:49;;;;;;;;;20.75;14.50;;;;;12.86;57.24;102297.13;5043323;28;45287;-64
2021/11/09 12:25:32;;;;;;;;;19.75;16.50;;;;;12.89;57.35;102299.66;5042867;28;45446;-64
2021/11/09 12:27:58;;;;;;;;;28.00;16.75;;;;;12.88;57.23;102291.78;5042334;28;45392;-64
2021/11/09 12:30:36;;;;;;;;;23.50;18.00;;;;;12.88;57.21;102291.78;5043042;28;45338;-64
2021/11/09 12:33:14;;;;;;;;;20.00;15.25;;;;;12.87;56.83;102282.97;5043219;28;45541;-64
2021/11/09 12:35:43;;;;;;;;;22.75;15.00;;;;;12.92;56.85;102282.78;5035323;28;45327;-64
2021/11/09 12:38:14;;;;;;;;;18.00;11.00;;;;;12.89;56.00;102278.47;5042734;28;45421;-64
2021/11/09 12:40:46;;;;;;;;;23.50;10.25;;;;;12.90;55.79;102279.34;5042781;28;45233;-63
2021/11/09 12:43:24;;;;;;;;;13.50;12.00;;;;;12.90;55.87;102271.41;5024598;28;45491;-63
2021/11/09 12:46:04;;;;;;;;;19.25;13.50;;;;;12.93;55.75;102274.75;5042188;28;45304;-63
2021/11/09 12:48:33;;;;;;;;;17.50;15.25;;;;;12.95;55.90;102275.53;5042972;28;45316;-63
2021/11/09 12:51:08;;;;;;;;;8.00;8.00;;;;;12.99;55.81;102282.44;5042606;28;45286;-63
2021/11/09 12:53:49;;;;;;;;;16.50;10.50;;;;;13.01;55.08;102277.06;5042634;28;45229;-63
2021/11/09 12:56:35;;;;;;;;;15.50;12.75;;;;;13.01;55.05;102279.72;5042203;28;45337;-63
2021/11/09 12:59:10;;;;;;;;;23.00;14.25;;;;;12.98;55.17;102266.63;5042248;28;45368;-63
2021/11/09 13:04:20;;;;;;;;;11.75;10.00;;;;;13.05;54.97;102268.06;5037899;28;45335;-63
2021/11/09 13:06:55;;;;;;;;;16.25;9.00;;;;;13.07;54.53;102264.41;5038557;28;46103;-63
2021/11/09 13:09:27;;;;;;;;;9.00;7.75;;;;;13.05;53.92;102266.28;5042248;28;45263;-64
2021/11/09 13:12:03;;;;;;;;;12.50;8.25;;;;;13.04;53.71;102263.72;5042562;28;45193;-64
2021/11/09 13:14:44;;;;;;;;;32.75;17.50;;;;;13.02;53.56;102261.13;5042644;28;46625;-63
2021/11/09 13:17:21;;;;;;;;;12.50;9.50;;;;;13.03;53.50;102264.63;5042417;28;45237;-64
2021/11/09 13:19:57;;;;;;;;;15.25;9.25;;;;;13.07;53.58;102264.41;5042118;28;45241;-64
2021/11/09 13:22:29;;;;;;;;;15.00;8.75;;;;;13.11;53.24;102265.13;5042357;28;45228;-63
2021/11/09 13:25:02;;;;;;;;;12.00;9.00;;;;;13.13;53.03;102260.66;5042374;28;45195;-63
2021/11/09 13:27:49;;;;;;;;;11.75;10.25;;;;;13.14;53.20;102257.06;5041747;28;45385;-64
2021/11/09 13:30:18;;;;;;;;;17.50;12.00;;;;;13.12;53.50;102256.28;5042193;28;45384;-64
2021/11/09 13:32:47;;;;;;;;;13.25;11.50;;;;;13.12;53.86;102251.00;5042153;28;45332;-64
2021/11/09 13:35:33;;;;;;;;;11.25;6.50;;;;;13.13;52.91;102243.00;5042153;28;45392;-64